Vitality — 2JBU7 — position and weather

sailwx.info

Track history (hours):
 
Tides and Currents Weather Stations Pressure Air Temp Water Temp Dewpoint Dewpoint Depression Visibility Wind Speed Wind Dir Waves Ship Positions

Vitality

Last reported at 2017-Nov-18 21:29 UTC. Time now 2017-Nov-18 21:40 UTC.
Position N 51°09' E 003°48'.

Length 90 m; draft 5.8 m.

Type: Cargo ship. MMSI: 235114599.

Date/timePositionNaut miles runAvg speedWind from/ knotsBaromVisibWave heightAir tempDewpointWater temp
2017-Nov-18 21:29N 51°09' E 003°48'0 0.0
2017-Nov-18 20:59N 51°09' E 003°48'0 0.0
2017-Nov-18 20:29N 51°09' E 003°48'0 0.0
2017-Nov-18 20:00N 51°09' E 003°48'0 0.0
2017-Nov-18 19:29N 51°09' E 003°48'0 0.0
2017-Nov-18 18:59N 51°09' E 003°48'0 0.0
2017-Nov-18 18:29N 51°09' E 003°48'0 0.0
2017-Nov-18 17:59N 51°09' E 003°48'0 0.0
2017-Nov-18 17:26N 51°09' E 003°48'0 0.0
2017-Nov-18 17:00N 51°09' E 003°48'0 0.0
2017-Nov-18 16:29N 51°09' E 003°48'0 0.0
2017-Nov-18 16:00N 51°09' E 003°48'0 0.0
2017-Nov-18 15:29N 51°09' E 003°48'0 0.0
2017-Nov-18 14:59N 51°09' E 003°48'0 0.0
2017-Nov-18 14:29N 51°09' E 003°48'0 0.0
2017-Nov-18 13:59N 51°09' E 003°48'0 0.0
2017-Nov-18 13:29N 51°09' E 003°48'0 0.0
2017-Nov-18 12:59N 51°09' E 003°48'0 0.0
2017-Nov-18 12:26N 51°09' E 003°48'0 0.0
2017-Nov-18 11:56N 51°09' E 003°48'0 0.0
2017-Nov-18 11:29N 51°09' E 003°48'0 0.0
2017-Nov-18 10:59N 51°09' E 003°48'0 0.0
2017-Nov-18 10:30N 51°09' E 003°48'0 0.0
2017-Nov-18 09:56N 51°09' E 003°48'0 0.0
2017-Nov-18 09:17N 51°09' E 003°48'0 0.0
2017-Nov-18 08:56N 51°09' E 003°48'0 0.0
2017-Nov-18 08:29N 51°09' E 003°48'0 0.0
2017-Nov-18 07:59N 51°09' E 003°48'0 0.0
2017-Nov-18 07:29N 51°09' E 003°48'0 0.0
2017-Nov-18 06:59N 51°09' E 003°48'0 0.0
2017-Nov-18 06:29N 51°09' E 003°48'0 0.0
2017-Nov-18 05:59N 51°09' E 003°48'0 0.0
2017-Nov-18 05:30N 51°09' E 003°48'0 0.0
2017-Nov-18 04:59N 51°09' E 003°48'0 0.0
2017-Nov-18 04:30N 51°09' E 003°48'0 0.0
2017-Nov-18 04:00N 51°09' E 003°48'1 1.5
2017-Nov-18 03:31N 51°09' E 003°47'4 7.0
2017-Nov-18 03:00N 51°13' E 003°48'4 7.6
2017-Nov-18 02:30N 51°16' E 003°50'3 6.4
2017-Nov-18 02:00N 51°20' E 003°49'0 0.4
2017-Nov-18 01:30N 51°20' E 003°49'0 0.8
2017-Nov-18 01:00N 51°20' E 003°49'3 6.6
2017-Nov-18 00:30N 51°22' E 003°44'5 9.9
2017-Nov-18 00:00N 51°25' E 003°38'2 3.9
2017-Nov-17 23:28N 51°25' E 003°35'0 0.0
2017-Nov-17 22:58N 51°25' E 003°35'0 0.0
2017-Nov-17 22:13N 51°25' E 003°35'0 0.0
2017-Nov-17 21:49N 51°25' E 003°35'0 0.0
2017-Nov-17 21:25N 51°25' E 003°35'0 0.0
2017-Nov-17 20:58N 51°25' E 003°35'2 3.7
2017-Nov-17 20:30N 51°25' E 003°32'5 9.5
2017-Nov-17 20:00N 51°24' E 003°25'4 8.6
2017-Nov-17 19:30N 51°24' E 003°18'4 7.9
2017-Nov-17 19:00N 51°23' E 003°12'4 7.7
2017-Nov-17 18:30N 51°22' E 003°06'4 7.6
2017-Nov-17 18:00N 51°21' E 002°60'4 8.4
2017-Nov-17 17:30N 51°21' E 002°53'4 8.5
2017-Nov-17 17:00N 51°22' E 002°46'4 8.0
2017-Nov-17 16:30N 51°22' E 002°39'3 5.5
2017-Nov-17 15:53N 51°20' E 002°35'0 0.1
2017-Nov-17 15:26N 51°20' E 002°35'0 0.0
2017-Nov-17 14:53N 51°20' E 002°35'0 0.0
2017-Nov-17 14:26N 51°20' E 002°35'0 0.0
2017-Nov-17 13:59N 51°20' E 002°35'0 0.0
2017-Nov-17 13:29N 51°20' E 002°35'0 0.0
2017-Nov-17 12:59N 51°20' E 002°35'0 0.0
2017-Nov-17 12:29N 51°20' E 002°35'0 0.0
2017-Nov-17 11:53N 51°20' E 002°35'0 0.0
2017-Nov-17 11:29N 51°20' E 002°35'0 0.0
2017-Nov-17 10:59N 51°20' E 002°35'0 0.0
2017-Nov-17 10:29N 51°20' E 002°35'0 0.1
2017-Nov-17 09:59N 51°20' E 002°35'0 0.1
2017-Nov-17 09:29N 51°20' E 002°35'0 0.1
2017-Nov-17 08:38N 51°20' E 002°35'0 0.0
2017-Nov-17 08:26N 51°20' E 002°35'0 0.0
2017-Nov-17 07:59N 51°20' E 002°35'0 0.0
2017-Nov-17 07:29N 51°20' E 002°35'0 0.0
2017-Nov-17 06:59N 51°20' E 002°35'0 0.0
2017-Nov-17 06:29N 51°20' E 002°35'0 0.0
2017-Nov-17 06:00N 51°20' E 002°35'0 0.0
2017-Nov-17 05:29N 51°20' E 002°35'0 0.0
2017-Nov-17 04:59N 51°20' E 002°35'0 0.0
2017-Nov-17 04:29N 51°20' E 002°35'0 0.0
2017-Nov-17 03:59N 51°20' E 002°35'0 0.0
2017-Nov-17 03:29N 51°20' E 002°35'0 0.0
2017-Nov-17 02:59N 51°20' E 002°35'0 0.1
2017-Nov-17 02:23N 51°20' E 002°35'0 0.1
2017-Nov-17 01:56N 51°20' E 002°35'0 0.0
2017-Nov-17 01:29N 51°20' E 002°35'0 0.0
2017-Nov-17 00:59N 51°20' E 002°35'0 0.0
2017-Nov-17 00:29N 51°20' E 002°35'0 0.0
2017-Nov-16 23:59N 51°20' E 002°35'0 0.0
2017-Nov-16 23:26N 51°20' E 002°35'0 0.0
2017-Nov-16 22:59N 51°20' E 002°35'0 0.1
2017-Nov-16 22:23N 51°20' E 002°35'0 0.1
2017-Nov-16 21:50N 51°20' E 002°35'0 0.1
2017-Nov-16 21:29N 51°20' E 002°35'0 0.1
2017-Nov-16 20:50N 51°20' E 002°35'0 0.1
2017-Nov-16 20:20N 51°20' E 002°35'0 0.0
2017-Nov-16 19:35N 51°20' E 002°35'0 0.0
2017-Nov-16 18:35N 51°20' E 002°35'0 0.0
2017-Nov-16 18:29N 51°20' E 002°35'0 0.0
2017-Nov-16 17:59N 51°20' E 002°35'0 0.0
2017-Nov-16 17:29N 51°20' E 002°35'0 0.1
2017-Nov-16 16:56N 51°20' E 002°35'0 0.1
2017-Nov-16 16:29N 51°20' E 002°35'0 0.3
2017-Nov-16 15:58N 51°20' E 002°35'3 7.3
2017-Nov-16 15:30N 51°22' E 002°30'5 8.7
2017-Nov-16 14:59N 51°20' E 002°24'5 9.3
2017-Nov-16 14:29N 51°17' E 002°18'5 9.7
2017-Nov-16 14:00N 51°14' E 002°12'5 9.9
2017-Nov-16 13:30N 51°12' E 002°05'510.4
2017-Nov-16 13:01N 51°10' E 001°57'610.8
2017-Nov-16 12:30N 51°07' E 001°50'611.3
2017-Nov-16 12:01N 51°03' E 001°44'116 8.9
2017-Nov-15 23:04N 50°08' W 000°56'1 7.2
2017-Nov-15 22:58N 50°07' W 000°57'4 7.4
2017-Nov-15 22:29N 50°06' W 001°02'4 7.9
2017-Nov-15 22:00N 50°05' W 001°08'4 8.6
2017-Nov-15 21:30N 50°04' W 001°14'5 9.3
2017-Nov-15 21:01N 50°03' W 001°21'510.0
2017-Nov-15 20:30N 50°01' W 001°29'510.8
2017-Nov-15 20:00N 49°60' W 001°37'611.3
2017-Nov-15 19:31N 49°58' W 001°45'611.9
2017-Nov-15 19:00N 49°57' W 001°54'612.0
2017-Nov-15 18:30N 49°56' W 002°03'108 9.1
2017-Nov-15 06:37N 49°01' W 004°27'1 8.0
2017-Nov-15 06:26N 49°00' W 004°29'4 8.1
2017-Nov-15 05:57N 48°58' W 004°34'4 8.3
2017-Nov-15 05:30N 48°55' W 004°38'4 8.5
2017-Nov-15 05:00N 48°53' W 004°44'4 8.8
2017-Nov-15 04:30N 48°50' W 004°49'5 9.2
2017-Nov-15 04:01N 48°48' W 004°55'5 9.3
2017-Nov-15 03:30N 48°45' W 005°00'5 9.7
2017-Nov-15 03:00N 48°42' W 005°06'710.5
2017-Nov-15 02:18N 48°37' W 005°15'3 9.7
2017-Nov-15 02:00N 48°35' W 005°18'510.4
2017-Nov-15 01:31N 48°31' W 005°23'5 8.9
2017-Nov-15 01:00N 48°26' W 005°22'5 9.8
2017-Nov-15 00:30N 48°22' W 005°20'510.1
2017-Nov-15 00:00N 48°17' W 005°19'510.0
2017-Nov-14 23:30N 48°12' W 005°17'510.0
2017-Nov-14 22:59N 48°07' W 005°15'5 9.4
2017-Nov-14 22:30N 48°03' W 005°11'5 9.7
2017-Nov-14 22:01N 47°60' W 005°06'5 9.9
2017-Nov-14 21:31N 47°56' W 005°01'5 9.8
2017-Nov-14 21:00N 47°53' W 004°55'5 9.5
2017-Nov-14 20:31N 47°50' W 004°50'5 9.2
2017-Nov-14 20:01N 47°46' W 004°45'5 9.0
2017-Nov-14 19:26N 47°43' W 004°40'5 8.8
2017-Nov-14 18:56N 47°40' W 004°35'4 8.7
2017-Nov-14 18:30N 47°37' W 004°31'6 8.8
2017-Nov-14 17:52N 47°34' W 004°25'8 8.8
2017-Nov-14 17:00N 47°28' W 004°17'6 8.8
2017-Nov-14 16:20N 47°24' W 004°10'4 9.0
2017-Nov-14 15:53N 47°22' W 004°06'9 8.9
2017-Nov-14 14:51N 47°15' W 003°56'3 8.8
2017-Nov-14 14:30N 47°13' W 003°52'5 8.8
2017-Nov-14 13:58N 47°10' W 003°47'12 8.7
2017-Nov-14 12:34N 47°02' W 003°34'3 8.8
2017-Nov-14 12:12N 46°60' W 003°30'3 8.8
2017-Nov-14 11:49N 46°58' W 003°26'5 8.8
2017-Nov-14 11:13N 46°54' W 003°20'2 8.8
2017-Nov-14 10:57N 46°53' W 003°18'4 8.7
2017-Nov-14 10:30N 46°50' W 003°13'5 8.9
2017-Nov-14 09:57N 46°47' W 003°08'5 8.9
2017-Nov-14 09:22N 46°43' W 003°03'4 9.1
2017-Nov-14 08:52N 46°40' W 002°58'5 9.2
2017-Nov-14 08:18N 46°37' W 002°52'3 9.2
2017-Nov-14 07:59N 46°35' W 002°49'5 9.2
2017-Nov-14 07:28N 46°31' W 002°44'4 9.2
2017-Nov-14 06:59N 46°28' W 002°39'6 9.1
2017-Nov-14 06:20N 46°24' W 002°33'3 9.2
2017-Nov-14 05:58N 46°22' W 002°29'4 9.2
2017-Nov-14 05:30N 46°19' W 002°25'56 8.7
2017-Nov-13 23:06N 45°39' W 001°29'3 8.3
2017-Nov-13 22:44N 45°38' W 001°26'2 8.5
2017-Nov-13 22:30N 45°36' W 001°24'4 7.9
2017-Nov-13 21:59N 45°38' W 001°18'29 0.6
2017-Nov-11 20:31N 45°20' W 000°47'111.9
2017-Nov-11 20:24N 45°21' W 000°48'511.8
2017-Nov-11 20:00N 45°25' W 000°51'612.1
2017-Nov-11 19:30N 45°30' W 000°57'611.5
2017-Nov-11 19:00N 45°34' W 001°02'510.2
2017-Nov-11 18:30N 45°38' W 001°07'5 9.9
2017-Nov-11 18:00N 45°40' W 001°13'4 8.5
2017-Nov-11 17:30N 45°38' W 001°19'4 8.1
2017-Nov-11 16:56N 45°36' W 001°25'1 1.5
2017-Nov-11 16:18N 45°36' W 001°26'167 8.9
2017-Nov-10 21:34N 47°32' W 004°22'210.5
2017-Nov-10 21:24N 47°33' W 004°24'610.6
2017-Nov-10 20:52N 47°37' W 004°30'410.7
2017-Nov-10 20:30N 47°39' W 004°34'710.4
2017-Nov-10 19:48N 47°44' W 004°43'410.3
2017-Nov-10 19:25N 47°46' W 004°48'4 9.9
2017-Nov-10 19:00N 47°49' W 004°52'5 9.4
2017-Nov-10 18:30N 47°53' W 004°57'5 9.2
2017-Nov-10 17:59N 47°56' W 005°02'4 8.9
2017-Nov-10 17:30N 47°59' W 005°07'5 9.2
2017-Nov-10 16:58N 48°02' W 005°12'5 9.4
2017-Nov-10 16:29N 48°05' W 005°17'7 9.5
2017-Nov-10 15:44N 48°10' W 005°25'11 9.5
2017-Nov-10 14:38N 48°17' W 005°37'104 7.2
2017-Nov-10 00:09N 49°50' W 004°27'6 8.9
2017-Nov-09 23:25N 49°55' W 004°21'4 9.0
2017-Nov-09 23:00N 49°57' W 004°17'5 9.2
2017-Nov-09 22:30N 50°02' W 004°14'5 9.4
2017-Nov-09 22:00N 50°06' W 004°11'5 9.6
2017-Nov-09 21:31N 50°10' W 004°08'510.3
2017-Nov-09 21:00N 50°15' W 004°10'5 9.4
2017-Nov-09 20:30N 50°20' W 004°10'2 4.9
2017-Nov-09 20:00N 50°22' W 004°07'0 0.0
2017-Nov-09 19:30N 50°22' W 004°07'0 0.0
2017-Nov-09 19:00N 50°22' W 004°07'0 0.0
2017-Nov-09 18:30N 50°22' W 004°07'0 0.0
2017-Nov-09 18:00N 50°22' W 004°07'0 0.0
2017-Nov-09 17:30N 50°22' W 004°07'0 0.0
2017-Nov-09 17:00N 50°22' W 004°07'0 0.0
2017-Nov-09 16:30N 50°22' W 004°07'0 0.0
2017-Nov-09 16:00N 50°22' W 004°07'0 0.0
2017-Nov-09 15:30N 50°22' W 004°07'0 0.0
2017-Nov-09 15:00N 50°22' W 004°07'0 0.0
2017-Nov-09 14:30N 50°22' W 004°07'0 0.0
2017-Nov-09 14:00N 50°22' W 004°07'0 0.0
2017-Nov-09 13:30N 50°22' W 004°07'0 0.0
2017-Nov-09 13:00N 50°22' W 004°07'0 0.0
2017-Nov-09 12:30N 50°22' W 004°07'0 0.0
2017-Nov-09 12:00N 50°22' W 004°07'0 0.0
2017-Nov-09 11:30N 50°22' W 004°07'0 0.0
2017-Nov-09 11:00N 50°22' W 004°07'0 0.0
2017-Nov-09 10:30N 50°22' W 004°07'0 0.0
2017-Nov-09 10:00N 50°22' W 004°07'0 0.0
2017-Nov-09 09:30N 50°22' W 004°07'0 0.0
2017-Nov-09 09:00N 50°22' W 004°07'0 0.0
2017-Nov-09 08:30N 50°22' W 004°07'0 0.0
2017-Nov-09 08:00N 50°22' W 004°07'0 0.0
2017-Nov-09 07:30N 50°22' W 004°07'0 0.0
2017-Nov-09 07:00N 50°22' W 004°07'0 0.0
2017-Nov-09 06:30N 50°22' W 004°07'0 0.0
2017-Nov-09 06:00N 50°22' W 004°07'0 0.0
2017-Nov-09 05:30N 50°22' W 004°07'0 0.0
2017-Nov-09 05:00N 50°22' W 004°07'0 0.0
2017-Nov-09 04:30N 50°22' W 004°07'0 0.0
2017-Nov-09 04:00N 50°22' W 004°07'0 0.0
2017-Nov-09 03:30N 50°22' W 004°07'0 0.0
2017-Nov-09 03:00N 50°22' W 004°07'0 0.0
2017-Nov-09 02:30N 50°22' W 004°07'0 0.0
2017-Nov-09 02:00N 50°22' W 004°07'0 0.0
2017-Nov-09 01:30N 50°22' W 004°07'0 0.0
2017-Nov-09 01:00N 50°22' W 004°07'0 0.0
2017-Nov-09 00:30N 50°22' W 004°07'0 0.0
2017-Nov-09 00:00N 50°22' W 004°07'0 0.0
2017-Nov-08 23:30N 50°22' W 004°07'0 0.0
2017-Nov-08 23:00N 50°22' W 004°07'0 0.0
2017-Nov-08 22:30N 50°22' W 004°07'0 0.0
2017-Nov-08 22:00N 50°22' W 004°07'0 0.0
2017-Nov-08 21:30N 50°22' W 004°07'  
Track history (hours):
 
Tides and Currents Weather Stations Pressure Air Temp Water Temp Dewpoint Dewpoint Depression Visibility Wind Speed Wind Dir Waves Ship Positions

Vitality

Last reported at 2017-Nov-18 21:29 UTC. Time now 2017-Nov-18 21:40 UTC.
Position N 51°09' E 003°48'.

Length 90 m; draft 5.8 m.

Type: Cargo ship. MMSI: 235114599.

Date/timePositionNaut miles runAvg speedWind from/ knotsBaromVisibWave heightAir tempDewpointWater temp
2017-Nov-18 21:29N 51°09' E 003°48'0 0.0
2017-Nov-18 20:59N 51°09' E 003°48'0 0.0
2017-Nov-18 20:29N 51°09' E 003°48'0 0.0
2017-Nov-18 20:00N 51°09' E 003°48'0 0.0
2017-Nov-18 19:29N 51°09' E 003°48'0 0.0
2017-Nov-18 18:59N 51°09' E 003°48'0 0.0
2017-Nov-18 18:29N 51°09' E 003°48'0 0.0
2017-Nov-18 17:59N 51°09' E 003°48'0 0.0
2017-Nov-18 17:26N 51°09' E 003°48'0 0.0
2017-Nov-18 17:00N 51°09' E 003°48'0 0.0
2017-Nov-18 16:29N 51°09' E 003°48'0 0.0
2017-Nov-18 16:00N 51°09' E 003°48'0 0.0
2017-Nov-18 15:29N 51°09' E 003°48'0 0.0
2017-Nov-18 14:59N 51°09' E 003°48'0 0.0
2017-Nov-18 14:29N 51°09' E 003°48'0 0.0
2017-Nov-18 13:59N 51°09' E 003°48'0 0.0
2017-Nov-18 13:29N 51°09' E 003°48'0 0.0
2017-Nov-18 12:59N 51°09' E 003°48'0 0.0
2017-Nov-18 12:26N 51°09' E 003°48'0 0.0
2017-Nov-18 11:56N 51°09' E 003°48'0 0.0
2017-Nov-18 11:29N 51°09' E 003°48'0 0.0
2017-Nov-18 10:59N 51°09' E 003°48'0 0.0
2017-Nov-18 10:30N 51°09' E 003°48'0 0.0
2017-Nov-18 09:56N 51°09' E 003°48'0 0.0
2017-Nov-18 09:17N 51°09' E 003°48'0 0.0
2017-Nov-18 08:56N 51°09' E 003°48'0 0.0
2017-Nov-18 08:29N 51°09' E 003°48'0 0.0
2017-Nov-18 07:59N 51°09' E 003°48'0 0.0
2017-Nov-18 07:29N 51°09' E 003°48'0 0.0
2017-Nov-18 06:59N 51°09' E 003°48'0 0.0
2017-Nov-18 06:29N 51°09' E 003°48'0 0.0
2017-Nov-18 05:59N 51°09' E 003°48'0 0.0
2017-Nov-18 05:30N 51°09' E 003°48'0 0.0
2017-Nov-18 04:59N 51°09' E 003°48'0 0.0
2017-Nov-18 04:30N 51°09' E 003°48'0 0.0
2017-Nov-18 04:00N 51°09' E 003°48'1 1.5
2017-Nov-18 03:31N 51°09' E 003°47'4 7.0
2017-Nov-18 03:00N 51°13' E 003°48'4 7.6
2017-Nov-18 02:30N 51°16' E 003°50'3 6.4
2017-Nov-18 02:00N 51°20' E 003°49'0 0.4
2017-Nov-18 01:30N 51°20' E 003°49'0 0.8
2017-Nov-18 01:00N 51°20' E 003°49'3 6.6
2017-Nov-18 00:30N 51°22' E 003°44'5 9.9
2017-Nov-18 00:00N 51°25' E 003°38'2 3.9
2017-Nov-17 23:28N 51°25' E 003°35'0 0.0
2017-Nov-17 22:58N 51°25' E 003°35'0 0.0
2017-Nov-17 22:13N 51°25' E 003°35'0 0.0
2017-Nov-17 21:49N 51°25' E 003°35'0 0.0
2017-Nov-17 21:25N 51°25' E 003°35'0 0.0
2017-Nov-17 20:58N 51°25' E 003°35'2 3.7
2017-Nov-17 20:30N 51°25' E 003°32'5 9.5
2017-Nov-17 20:00N 51°24' E 003°25'4 8.6
2017-Nov-17 19:30N 51°24' E 003°18'4 7.9
2017-Nov-17 19:00N 51°23' E 003°12'4 7.7
2017-Nov-17 18:30N 51°22' E 003°06'4 7.6
2017-Nov-17 18:00N 51°21' E 002°60'4 8.4
2017-Nov-17 17:30N 51°21' E 002°53'4 8.5
2017-Nov-17 17:00N 51°22' E 002°46'4 8.0
2017-Nov-17 16:30N 51°22' E 002°39'3 5.5
2017-Nov-17 15:53N 51°20' E 002°35'0 0.1
2017-Nov-17 15:26N 51°20' E 002°35'0 0.0
2017-Nov-17 14:53N 51°20' E 002°35'0 0.0
2017-Nov-17 14:26N 51°20' E 002°35'0 0.0
2017-Nov-17 13:59N 51°20' E 002°35'0 0.0
2017-Nov-17 13:29N 51°20' E 002°35'0 0.0
2017-Nov-17 12:59N 51°20' E 002°35'0 0.0
2017-Nov-17 12:29N 51°20' E 002°35'0 0.0
2017-Nov-17 11:53N 51°20' E 002°35'0 0.0
2017-Nov-17 11:29N 51°20' E 002°35'0 0.0
2017-Nov-17 10:59N 51°20' E 002°35'0 0.0
2017-Nov-17 10:29N 51°20' E 002°35'0 0.1
2017-Nov-17 09:59N 51°20' E 002°35'0 0.1
2017-Nov-17 09:29N 51°20' E 002°35'0 0.1
2017-Nov-17 08:38N 51°20' E 002°35'0 0.0
2017-Nov-17 08:26N 51°20' E 002°35'0 0.0
2017-Nov-17 07:59N 51°20' E 002°35'0 0.0
2017-Nov-17 07:29N 51°20' E 002°35'0 0.0
2017-Nov-17 06:59N 51°20' E 002°35'0 0.0
2017-Nov-17 06:29N 51°20' E 002°35'0 0.0
2017-Nov-17 06:00N 51°20' E 002°35'0 0.0
2017-Nov-17 05:29N 51°20' E 002°35'0 0.0
2017-Nov-17 04:59N 51°20' E 002°35'0 0.0
2017-Nov-17 04:29N 51°20' E 002°35'0 0.0
2017-Nov-17 03:59N 51°20' E 002°35'0 0.0
2017-Nov-17 03:29N 51°20' E 002°35'0 0.0
2017-Nov-17 02:59N 51°20' E 002°35'0 0.1
2017-Nov-17 02:23N 51°20' E 002°35'0 0.1
2017-Nov-17 01:56N 51°20' E 002°35'0 0.0
2017-Nov-17 01:29N 51°20' E 002°35'0 0.0
2017-Nov-17 00:59N 51°20' E 002°35'0 0.0
2017-Nov-17 00:29N 51°20' E 002°35'0 0.0
2017-Nov-16 23:59N 51°20' E 002°35'0 0.0
2017-Nov-16 23:26N 51°20' E 002°35'0 0.0
2017-Nov-16 22:59N 51°20' E 002°35'0 0.1
2017-Nov-16 22:23N 51°20' E 002°35'0 0.1
2017-Nov-16 21:50N 51°20' E 002°35'0 0.1
2017-Nov-16 21:29N 51°20' E 002°35'0 0.1
2017-Nov-16 20:50N 51°20' E 002°35'0 0.1
2017-Nov-16 20:20N 51°20' E 002°35'0 0.0
2017-Nov-16 19:35N 51°20' E 002°35'0 0.0
2017-Nov-16 18:35N 51°20' E 002°35'0 0.0
2017-Nov-16 18:29N 51°20' E 002°35'0 0.0
2017-Nov-16 17:59N 51°20' E 002°35'0 0.0
2017-Nov-16 17:29N 51°20' E 002°35'0 0.1
2017-Nov-16 16:56N 51°20' E 002°35'0 0.1
2017-Nov-16 16:29N 51°20' E 002°35'0 0.3
2017-Nov-16 15:58N 51°20' E 002°35'3 7.3
2017-Nov-16 15:30N 51°22' E 002°30'5 8.7
2017-Nov-16 14:59N 51°20' E 002°24'5 9.3
2017-Nov-16 14:29N 51°17' E 002°18'5 9.7
2017-Nov-16 14:00N 51°14' E 002°12'5 9.9
2017-Nov-16 13:30N 51°12' E 002°05'510.4
2017-Nov-16 13:01N 51°10' E 001°57'610.8
2017-Nov-16 12:30N 51°07' E 001°50'611.3
2017-Nov-16 12:01N 51°03' E 001°44'116 8.9
2017-Nov-15 23:04N 50°08' W 000°56'1 7.2
2017-Nov-15 22:58N 50°07' W 000°57'4 7.4
2017-Nov-15 22:29N 50°06' W 001°02'4 7.9
2017-Nov-15 22:00N 50°05' W 001°08'4 8.6
2017-Nov-15 21:30N 50°04' W 001°14'5 9.3
2017-Nov-15 21:01N 50°03' W 001°21'510.0
2017-Nov-15 20:30N 50°01' W 001°29'510.8
2017-Nov-15 20:00N 49°60' W 001°37'611.3
2017-Nov-15 19:31N 49°58' W 001°45'611.9
2017-Nov-15 19:00N 49°57' W 001°54'612.0
2017-Nov-15 18:30N 49°56' W 002°03'108 9.1
2017-Nov-15 06:37N 49°01' W 004°27'1 8.0
2017-Nov-15 06:26N 49°00' W 004°29'4 8.1
2017-Nov-15 05:57N 48°58' W 004°34'4 8.3
2017-Nov-15 05:30N 48°55' W 004°38'4 8.5
2017-Nov-15 05:00N 48°53' W 004°44'4 8.8
2017-Nov-15 04:30N 48°50' W 004°49'5 9.2
2017-Nov-15 04:01N 48°48' W 004°55'5 9.3
2017-Nov-15 03:30N 48°45' W 005°00'5 9.7
2017-Nov-15 03:00N 48°42' W 005°06'710.5
2017-Nov-15 02:18N 48°37' W 005°15'3 9.7
2017-Nov-15 02:00N 48°35' W 005°18'510.4
2017-Nov-15 01:31N 48°31' W 005°23'5 8.9
2017-Nov-15 01:00N 48°26' W 005°22'5 9.8
2017-Nov-15 00:30N 48°22' W 005°20'510.1
2017-Nov-15 00:00N 48°17' W 005°19'510.0
2017-Nov-14 23:30N 48°12' W 005°17'510.0
2017-Nov-14 22:59N 48°07' W 005°15'5 9.4
2017-Nov-14 22:30N 48°03' W 005°11'5 9.7
2017-Nov-14 22:01N 47°60' W 005°06'5 9.9
2017-Nov-14 21:31N 47°56' W 005°01'5 9.8
2017-Nov-14 21:00N 47°53' W 004°55'5 9.5
2017-Nov-14 20:31N 47°50' W 004°50'5 9.2
2017-Nov-14 20:01N 47°46' W 004°45'5 9.0
2017-Nov-14 19:26N 47°43' W 004°40'5 8.8
2017-Nov-14 18:56N 47°40' W 004°35'4 8.7
2017-Nov-14 18:30N 47°37' W 004°31'6 8.8
2017-Nov-14 17:52N 47°34' W 004°25'8 8.8
2017-Nov-14 17:00N 47°28' W 004°17'6 8.8
2017-Nov-14 16:20N 47°24' W 004°10'4 9.0
2017-Nov-14 15:53N 47°22' W 004°06'9 8.9
2017-Nov-14 14:51N 47°15' W 003°56'3 8.8
2017-Nov-14 14:30N 47°13' W 003°52'5 8.8
2017-Nov-14 13:58N 47°10' W 003°47'12 8.7
2017-Nov-14 12:34N 47°02' W 003°34'3 8.8
2017-Nov-14 12:12N 46°60' W 003°30'3 8.8
2017-Nov-14 11:49N 46°58' W 003°26'5 8.8
2017-Nov-14 11:13N 46°54' W 003°20'2 8.8
2017-Nov-14 10:57N 46°53' W 003°18'4 8.7
2017-Nov-14 10:30N 46°50' W 003°13'5 8.9
2017-Nov-14 09:57N 46°47' W 003°08'5 8.9
2017-Nov-14 09:22N 46°43' W 003°03'4 9.1
2017-Nov-14 08:52N 46°40' W 002°58'5 9.2
2017-Nov-14 08:18N 46°37' W 002°52'3 9.2
2017-Nov-14 07:59N 46°35' W 002°49'5 9.2
2017-Nov-14 07:28N 46°31' W 002°44'4 9.2
2017-Nov-14 06:59N 46°28' W 002°39'6 9.1
2017-Nov-14 06:20N 46°24' W 002°33'3 9.2
2017-Nov-14 05:58N 46°22' W 002°29'4 9.2
2017-Nov-14 05:30N 46°19' W 002°25'56 8.7
2017-Nov-13 23:06N 45°39' W 001°29'3 8.3
2017-Nov-13 22:44N 45°38' W 001°26'2 8.5
2017-Nov-13 22:30N 45°36' W 001°24'4 7.9
2017-Nov-13 21:59N 45°38' W 001°18'29 0.6
2017-Nov-11 20:31N 45°20' W 000°47'111.9
2017-Nov-11 20:24N 45°21' W 000°48'511.8
2017-Nov-11 20:00N 45°25' W 000°51'612.1
2017-Nov-11 19:30N 45°30' W 000°57'611.5
2017-Nov-11 19:00N 45°34' W 001°02'510.2
2017-Nov-11 18:30N 45°38' W 001°07'5 9.9
2017-Nov-11 18:00N 45°40' W 001°13'4 8.5
2017-Nov-11 17:30N 45°38' W 001°19'4 8.1
2017-Nov-11 16:56N 45°36' W 001°25'1 1.5
2017-Nov-11 16:18N 45°36' W 001°26'167 8.9
2017-Nov-10 21:34N 47°32' W 004°22'210.5
2017-Nov-10 21:24N 47°33' W 004°24'610.6
2017-Nov-10 20:52N 47°37' W 004°30'410.7
2017-Nov-10 20:30N 47°39' W 004°34'710.4
2017-Nov-10 19:48N 47°44' W 004°43'410.3
2017-Nov-10 19:25N 47°46' W 004°48'4 9.9
2017-Nov-10 19:00N 47°49' W 004°52'5 9.4
2017-Nov-10 18:30N 47°53' W 004°57'5 9.2
2017-Nov-10 17:59N 47°56' W 005°02'4 8.9
2017-Nov-10 17:30N 47°59' W 005°07'5 9.2
2017-Nov-10 16:58N 48°02' W 005°12'5 9.4
2017-Nov-10 16:29N 48°05' W 005°17'7 9.5
2017-Nov-10 15:44N 48°10' W 005°25'11 9.5
2017-Nov-10 14:38N 48°17' W 005°37'104 7.2
2017-Nov-10 00:09N 49°50' W 004°27'6 8.9
2017-Nov-09 23:25N 49°55' W 004°21'4 9.0
2017-Nov-09 23:00N 49°57' W 004°17'5 9.2
2017-Nov-09 22:30N 50°02' W 004°14'5 9.4
2017-Nov-09 22:00N 50°06' W 004°11'5 9.6
2017-Nov-09 21:31N 50°10' W 004°08'510.3
2017-Nov-09 21:00N 50°15' W 004°10'5 9.4
2017-Nov-09 20:30N 50°20' W 004°10'2 4.9
2017-Nov-09 20:00N 50°22' W 004°07'0 0.0
2017-Nov-09 19:30N 50°22' W 004°07'0 0.0
2017-Nov-09 19:00N 50°22' W 004°07'0 0.0
2017-Nov-09 18:30N 50°22' W 004°07'0 0.0
2017-Nov-09 18:00N 50°22' W 004°07'0 0.0
2017-Nov-09 17:30N 50°22' W 004°07'0 0.0
2017-Nov-09 17:00N 50°22' W 004°07'0 0.0
2017-Nov-09 16:30N 50°22' W 004°07'0 0.0
2017-Nov-09 16:00N 50°22' W 004°07'0 0.0
2017-Nov-09 15:30N 50°22' W 004°07'0 0.0
2017-Nov-09 15:00N 50°22' W 004°07'0 0.0
2017-Nov-09 14:30N 50°22' W 004°07'0 0.0
2017-Nov-09 14:00N 50°22' W 004°07'0 0.0
2017-Nov-09 13:30N 50°22' W 004°07'0 0.0
2017-Nov-09 13:00N 50°22' W 004°07'0 0.0
2017-Nov-09 12:30N 50°22' W 004°07'0 0.0
2017-Nov-09 12:00N 50°22' W 004°07'0 0.0
2017-Nov-09 11:30N 50°22' W 004°07'0 0.0
2017-Nov-09 11:00N 50°22' W 004°07'0 0.0
2017-Nov-09 10:30N 50°22' W 004°07'0 0.0
2017-Nov-09 10:00N 50°22' W 004°07'0 0.0
2017-Nov-09 09:30N 50°22' W 004°07'0 0.0
2017-Nov-09 09:00N 50°22' W 004°07'0 0.0
2017-Nov-09 08:30N 50°22' W 004°07'0 0.0
2017-Nov-09 08:00N 50°22' W 004°07'0 0.0
2017-Nov-09 07:30N 50°22' W 004°07'0 0.0
2017-Nov-09 07:00N 50°22' W 004°07'0 0.0
2017-Nov-09 06:30N 50°22' W 004°07'0 0.0
2017-Nov-09 06:00N 50°22' W 004°07'0 0.0
2017-Nov-09 05:30N 50°22' W 004°07'0 0.0
2017-Nov-09 05:00N 50°22' W 004°07'0 0.0
2017-Nov-09 04:30N 50°22' W 004°07'0 0.0
2017-Nov-09 04:00N 50°22' W 004°07'0 0.0
2017-Nov-09 03:30N 50°22' W 004°07'0 0.0
2017-Nov-09 03:00N 50°22' W 004°07'0 0.0
2017-Nov-09 02:30N 50°22' W 004°07'0 0.0
2017-Nov-09 02:00N 50°22' W 004°07'0 0.0
2017-Nov-09 01:30N 50°22' W 004°07'0 0.0
2017-Nov-09 01:00N 50°22' W 004°07'0 0.0
2017-Nov-09 00:30N 50°22' W 004°07'0 0.0
2017-Nov-09 00:00N 50°22' W 004°07'0 0.0
2017-Nov-08 23:30N 50°22' W 004°07'0 0.0
2017-Nov-08 23:00N 50°22' W 004°07'0 0.0
2017-Nov-08 22:30N 50°22' W 004°07'0 0.0
2017-Nov-08 22:00N 50°22' W 004°07'0 0.0
2017-Nov-08 21:30N 50°22' W 004°07'  

Dump ship's entire track history